Pagrindinis puslapis
METAR-TAF:

METAR-TAF

Oro uostai :

Abumusa, Iranas

platuma: 25-52-33N, ilguma: 055-02-01E, Aukštis: 7 m

Dabartinis oras

Ataskaita buvo paskelbta 1 valandą ir 0 minutes, ne 04:00 UTC
Vėjas 6 kt iš Pietų/Pietvakarių
Temperatūra 31°C
Drėgmė 75%
Slėgis 1003 hPa
Matomumas: 5000 m
migla

METAR: OIBA 290400Z 21006KT 5000 HZ NSC 31/26 Q1003

Laikas: 09:30 (05:00 UTC)


TAF: trūkstamas

Orai ataskaitas ir orų prognozės (METAR, TAF).

turimą stotys yra geltonos ir raudonos taškus žemėlapyje.

Perkelti pele per norėdami pamatyti stoties vardą.

Tada spustelėkite, norėdami matyti oro stebėjimo ir prognozės.

Norėdami pakeisti žemėlapį: spustelėkite ant žalios mygtukų su juodo kryžiaus žemyn,; žalią mygtuką su brūkšneliu, jei norite nutolinti; arba žalių rodyklių gretimoms žemėlapius.


METAR-TAF: